createdAt,value
2022-08-17T00:00:42.861Z,19.97
2022-08-17T00:03:02.752Z,19.85
2022-08-17T00:05:32.511Z,19.67
2022-08-17T00:08:00.568Z,19.86
2022-08-17T00:10:28.284Z,19.68
2022-08-17T00:12:57.657Z,19.69
2022-08-17T00:15:26.755Z,19.75
2022-08-17T00:17:54.518Z,19.59
2022-08-17T00:20:23.392Z,19.66
2022-08-17T00:23:09.501Z,19.64
2022-08-17T00:25:37.363Z,19.57
2022-08-17T00:28:06.102Z,19.62
2022-08-17T00:30:51.025Z,19.63
2022-08-17T00:33:21.646Z,19.50
2022-08-17T00:35:50.618Z,19.54
2022-08-17T00:38:18.805Z,19.61
2022-08-17T00:40:49.496Z,19.69
2022-08-17T00:43:23.402Z,19.78
2022-08-17T00:45:53.229Z,19.78
2022-08-17T00:48:29.060Z,19.93
2022-08-17T00:51:02.630Z,19.90
2022-08-17T00:53:32.590Z,19.94
2022-08-17T00:56:02.662Z,19.76
2022-08-17T00:58:36.638Z,19.67
2022-08-17T01:01:07.790Z,19.56
2022-08-17T01:03:38.021Z,19.43
2022-08-17T01:06:09.044Z,19.71
2022-08-17T01:08:39.985Z,19.86
2022-08-17T01:11:08.984Z,19.93
2022-08-17T01:13:41.149Z,19.86
2022-08-17T01:16:16.927Z,19.83
2022-08-17T01:18:46.460Z,19.86
2022-08-17T01:21:27.872Z,19.78
2022-08-17T01:23:57.551Z,20.00
2022-08-17T01:26:25.315Z,19.93
2022-08-17T01:28:55.999Z,19.92
2022-08-17T01:31:28.950Z,19.87
2022-08-17T01:33:58.232Z,19.93
2022-08-17T01:36:25.998Z,20.04
2022-08-17T01:38:53.709Z,19.98
2022-08-17T01:41:23.789Z,20.05
2022-08-17T01:43:55.777Z,20.20
2022-08-17T01:46:25.044Z,20.22
2022-08-17T01:48:52.765Z,19.93
2022-08-17T01:51:21.237Z,20.08
2022-08-17T01:53:52.857Z,19.86
2022-08-17T01:56:24.209Z,19.96
2022-08-17T01:58:52.404Z,19.98
2022-08-17T02:01:26.475Z,19.97
2022-08-17T02:04:00.866Z,19.97
2022-08-17T02:06:31.649Z,19.97
2022-08-17T02:09:16.923Z,19.98
2022-08-17T02:11:46.866Z,19.73
2022-08-17T02:14:15.297Z,19.68
2022-08-17T02:16:43.491Z,19.54
2022-08-17T02:19:13.698Z,19.70
2022-08-17T02:21:44.461Z,19.77
2022-08-17T02:24:16.611Z,19.63
2022-08-17T02:26:44.604Z,19.70
2022-08-17T02:29:14.546Z,19.66
2022-08-17T02:31:42.527Z,19.69
2022-08-17T02:34:10.391Z,19.71
2022-08-17T02:36:38.132Z,19.90
2022-08-17T02:39:08.410Z,19.75
2022-08-17T02:41:36.555Z,19.81
2022-08-17T02:44:05.861Z,19.95
2022-08-17T02:46:35.446Z,19.99
2022-08-17T02:49:03.416Z,20.02
2022-08-17T02:51:31.236Z,20.08
2022-08-17T02:54:38.865Z,20.43
2022-08-17T02:56:46.944Z,20.45
2022-08-17T02:59:16.792Z,20.57
2022-08-17T03:01:45.878Z,20.52
2022-08-17T03:04:13.655Z,20.52
2022-08-17T03:06:41.350Z,20.50
2022-08-17T03:09:09.748Z,20.41
2022-08-17T03:11:37.694Z,20.33
2022-08-17T03:14:05.421Z,20.26
2022-08-17T03:16:33.165Z,20.25
2022-08-17T03:19:03.790Z,20.21
2022-08-17T03:21:31.559Z,20.27
2022-08-17T03:23:59.276Z,20.14
2022-08-17T03:26:29.751Z,20.00
2022-08-17T03:28:57.616Z,20.03
2022-08-17T03:31:25.349Z,19.96
2022-08-17T03:33:53.049Z,19.75
2022-08-17T03:36:22.267Z,19.66
2022-08-17T03:38:50.010Z,19.64
2022-08-17T03:41:18.899Z,19.65
2022-08-17T03:43:46.591Z,19.65
2022-08-17T03:46:35.273Z,19.53
2022-08-17T03:49:22.237Z,19.52
2022-08-17T03:52:09.412Z,19.59
2022-08-17T03:54:54.652Z,19.35
2022-08-17T03:57:22.507Z,19.33
2022-08-17T03:59:50.657Z,19.34
2022-08-17T04:02:22.448Z,19.07
2022-08-17T04:04:52.282Z,19.03
2022-08-17T04:07:23.035Z,18.98
2022-08-17T04:09:50.774Z,18.96
2022-08-17T04:12:20.520Z,18.82
2022-08-17T04:14:52.890Z,18.85
2022-08-17T04:17:24.555Z,18.90
2022-08-17T04:19:52.500Z,18.68
2022-08-17T04:22:33.265Z,18.98
2022-08-17T04:25:10.257Z,18.94
2022-08-17T04:27:38.144Z,19.00
2022-08-17T04:30:07.988Z,18.98
2022-08-17T04:33:04.149Z,18.95
2022-08-17T04:35:36.747Z,18.99
2022-08-17T04:38:06.128Z,18.84
2022-08-17T04:40:51.857Z,19.17
2022-08-17T04:43:21.533Z,19.32
2022-08-17T04:45:56.143Z,19.37
2022-08-17T04:48:29.662Z,19.49
2022-08-17T04:51:06.912Z,19.57
2022-08-17T04:53:36.223Z,19.63
2022-08-17T04:56:04.568Z,19.73
2022-08-17T04:58:32.329Z,19.87
2022-08-17T05:01:00.150Z,19.92
2022-08-17T05:03:29.135Z,19.85
2022-08-17T05:05:56.901Z,19.90
2022-08-17T05:08:24.642Z,19.92
2022-08-17T05:10:53.829Z,19.98
2022-08-17T05:13:23.709Z,20.09
2022-08-17T05:15:55.338Z,20.22
2022-08-17T05:18:24.557Z,20.25
2022-08-17T05:20:53.099Z,20.32
2022-08-17T05:23:22.450Z,20.33
2022-08-17T05:25:55.631Z,20.39
2022-08-17T05:28:27.627Z,20.48
2022-08-17T05:31:00.259Z,20.53
2022-08-17T05:33:30.801Z,20.68
2022-08-17T05:36:00.390Z,20.80
2022-08-17T05:38:29.588Z,20.80
2022-08-17T05:40:59.885Z,20.79
2022-08-17T05:43:30.144Z,20.77
2022-08-17T05:46:04.587Z,20.68
2022-08-17T05:48:39.945Z,20.78
2022-08-17T05:51:32.900Z,20.66
2022-08-17T05:54:16.605Z,20.67
2022-08-17T05:57:03.359Z,20.78
2022-08-17T05:59:42.625Z,21.04
2022-08-17T06:02:22.405Z,21.32
2022-08-17T06:05:06.755Z,21.47
2022-08-17T06:07:46.865Z,21.79
2022-08-17T06:10:25.134Z,22.07
2022-08-17T06:13:04.490Z,22.41
2022-08-17T06:15:37.541Z,22.36
2022-08-17T06:18:08.787Z,22.65
2022-08-17T06:20:44.034Z,22.65
2022-08-17T06:23:26.811Z,22.88
2022-08-17T06:26:02.073Z,22.77
2022-08-17T06:28:38.912Z,22.43
2022-08-17T06:31:12.426Z,22.27
2022-08-17T06:33:46.325Z,22.27
2022-08-17T06:36:29.292Z,22.43
2022-08-17T06:39:04.907Z,23.00
2022-08-17T06:41:42.976Z,23.29
2022-08-17T06:44:42.258Z,23.89
2022-08-17T06:47:12.470Z,24.18
2022-08-17T06:49:55.189Z,24.47
2022-08-17T06:52:42.303Z,24.22
2022-08-17T06:55:21.260Z,24.84
2022-08-17T06:57:53.521Z,25.07
2022-08-17T07:00:26.008Z,24.58
2022-08-17T07:02:58.829Z,24.76
2022-08-17T07:05:31.994Z,24.83
2022-08-17T07:08:04.090Z,24.44
2022-08-17T07:10:44.119Z,24.28
2022-08-17T07:13:29.324Z,24.42
2022-08-17T07:16:08.634Z,25.29
2022-08-17T07:18:36.360Z,25.83
2022-08-17T07:21:19.139Z,25.93
2022-08-17T07:24:07.889Z,26.66
2022-08-17T07:26:35.612Z,26.61
2022-08-17T07:29:03.528Z,26.33
2022-08-17T07:31:33.498Z,25.51
2022-08-17T07:34:06.799Z,25.37
2022-08-17T07:36:35.098Z,25.28
2022-08-17T07:39:04.912Z,25.46
2022-08-17T07:41:53.053Z,25.37
2022-08-17T07:44:25.734Z,25.74
2022-08-17T07:47:13.082Z,26.28
2022-08-17T07:49:44.183Z,26.28
2022-08-17T07:52:50.895Z,26.07
2022-08-17T07:55:29.545Z,26.76
2022-08-17T07:57:59.280Z,27.01
2022-08-17T08:00:32.466Z,26.83
2022-08-17T08:03:21.732Z,26.72
2022-08-17T08:05:54.931Z,27.24
2022-08-17T08:08:28.168Z,27.01
2022-08-17T08:11:04.651Z,26.98
2022-08-17T08:13:33.269Z,27.17
2022-08-17T08:16:22.567Z,27.10
2022-08-17T08:18:56.840Z,27.12
2022-08-17T08:21:38.854Z,27.50
2022-08-17T08:24:24.513Z,27.54
2022-08-17T08:27:09.116Z,28.22
2022-08-17T08:29:45.117Z,28.56
2022-08-17T08:32:20.893Z,28.02
2022-08-17T08:35:02.721Z,28.09
2022-08-17T08:37:43.263Z,28.53
2022-08-17T08:40:21.428Z,28.74
2022-08-17T08:42:57.478Z,28.42
2022-08-17T08:45:30.525Z,27.91
2022-08-17T08:48:22.898Z,28.12
2022-08-17T08:51:14.594Z,28.20
2022-08-17T08:53:49.578Z,28.21
2022-08-17T08:56:35.382Z,28.90
2022-08-17T08:59:13.779Z,29.74
2022-08-17T09:01:53.185Z,30.12
2022-08-17T09:05:02.745Z,29.91
2022-08-17T09:07:30.296Z,30.10
2022-08-17T09:10:07.668Z,30.48
2022-08-17T09:12:42.643Z,30.40
2022-08-17T09:15:17.718Z,30.61
2022-08-17T09:18:03.675Z,29.77
2022-08-17T09:20:50.060Z,30.76
2022-08-17T09:23:32.438Z,31.10
2022-08-17T09:26:04.377Z,30.00
2022-08-17T09:28:36.407Z,30.40
2022-08-17T09:31:09.783Z,29.85
2022-08-17T09:33:43.439Z,30.52
2022-08-17T09:36:16.805Z,30.79
2022-08-17T09:38:55.275Z,31.09
2022-08-17T09:41:29.224Z,31.53
2022-08-17T09:44:10.768Z,31.89
2022-08-17T09:46:56.012Z,30.61
2022-08-17T09:49:30.882Z,31.85
2022-08-17T09:52:03.379Z,31.69
2022-08-17T09:54:39.054Z,31.35
2022-08-17T09:57:31.817Z,30.96
2022-08-17T10:00:17.052Z,31.82
2022-08-17T10:03:18.024Z,32.74
2022-08-17T10:05:56.646Z,32.37
2022-08-17T10:08:32.492Z,32.35
2022-08-17T10:11:14.823Z,33.52
2022-08-17T10:13:53.055Z,32.78
2022-08-17T10:16:30.100Z,32.66
2022-08-17T10:19:09.863Z,31.64
2022-08-17T10:22:00.606Z,32.60
2022-08-17T10:25:22.988Z,32.44
2022-08-17T10:27:48.709Z,32.30
2022-08-17T10:30:19.694Z,32.34
2022-08-17T10:32:52.338Z,33.74
2022-08-17T10:35:33.970Z,34.51
2022-08-17T10:38:24.637Z,33.17
2022-08-17T10:40:58.621Z,33.76
2022-08-17T10:43:41.744Z,33.40
2022-08-17T10:46:30.987Z,34.11
2022-08-17T10:49:23.412Z,34.85
2022-08-17T10:51:54.356Z,36.09
2022-08-17T10:54:45.642Z,34.95
2022-08-17T10:57:32.378Z,35.09
2022-08-17T11:00:02.218Z,35.52
2022-08-17T11:02:31.802Z,35.03
2022-08-17T11:05:09.714Z,35.46
2022-08-17T11:07:58.480Z,34.62
2022-08-17T11:11:05.920Z,34.73
2022-08-17T11:13:46.012Z,35.73
2022-08-17T11:16:47.861Z,35.70
2022-08-17T11:19:41.852Z,36.01
2022-08-17T11:23:00.347Z,34.67
2022-08-17T11:25:38.387Z,35.44
2022-08-17T11:28:09.578Z,34.29
2022-08-17T11:30:50.477Z,33.53
2022-08-17T11:33:55.848Z,33.00
2022-08-17T11:36:57.044Z,32.49
2022-08-17T11:39:40.803Z,32.22
2022-08-17T11:42:21.442Z,32.83
2022-08-17T11:44:56.213Z,34.12
2022-08-17T11:48:08.919Z,34.02
2022-08-17T11:51:04.912Z,34.21
2022-08-17T11:54:21.480Z,35.16
2022-08-17T11:56:48.906Z,34.81
2022-08-17T11:59:54.645Z,34.80
2022-08-17T12:02:47.841Z,33.63
2022-08-17T12:05:36.027Z,34.69
2022-08-17T12:08:15.349Z,35.46
2022-08-17T12:10:55.252Z,35.53
2022-08-17T12:13:30.603Z,36.34
2022-08-17T12:16:09.875Z,36.30
2022-08-17T12:18:39.532Z,36.80
2022-08-17T12:21:22.832Z,36.54
2022-08-17T12:23:57.758Z,35.62
2022-08-17T12:26:30.219Z,35.51
2022-08-17T12:29:02.020Z,34.43
2022-08-17T12:31:35.405Z,33.13
2022-08-17T12:34:04.124Z,34.05
2022-08-17T12:36:33.420Z,34.32
2022-08-17T12:39:12.835Z,34.03
2022-08-17T12:41:45.133Z,35.44
2022-08-17T12:44:18.482Z,37.24
2022-08-17T12:46:53.395Z,36.08
2022-08-17T12:49:25.217Z,34.37
2022-08-17T12:51:57.861Z,35.01
2022-08-17T12:54:33.591Z,35.07
2022-08-17T12:57:08.805Z,36.50
2022-08-17T12:59:42.365Z,35.69
2022-08-17T13:02:21.461Z,36.33
2022-08-17T13:04:50.323Z,35.34
2022-08-17T13:07:30.445Z,34.83
2022-08-17T13:09:59.687Z,35.82
2022-08-17T13:12:30.074Z,33.65
2022-08-17T13:14:58.470Z,34.78
2022-08-17T13:17:29.077Z,35.13
2022-08-17T13:19:57.221Z,35.70
2022-08-17T13:22:26.608Z,35.07
2022-08-17T13:24:57.383Z,34.05
2022-08-17T13:27:29.388Z,33.67
2022-08-17T13:29:59.581Z,32.75
2022-08-17T13:32:43.636Z,32.07
2022-08-17T13:35:40.340Z,32.54
2022-08-17T13:38:11.752Z,32.23
2022-08-17T13:40:44.393Z,32.12
2022-08-17T13:43:13.629Z,32.22
2022-08-17T13:45:51.768Z,32.21
2022-08-17T13:48:28.793Z,31.80
2022-08-17T13:51:14.569Z,32.91
2022-08-17T13:54:09.067Z,32.50
2022-08-17T13:56:51.965Z,32.56
2022-08-17T13:59:36.284Z,30.89
2022-08-17T14:02:20.732Z,31.99
2022-08-17T14:04:50.068Z,31.76
2022-08-17T14:07:35.204Z,31.21
2022-08-17T14:10:08.862Z,31.57
2022-08-17T14:12:39.695Z,31.46
2022-08-17T14:15:10.372Z,31.26
2022-08-17T14:17:39.274Z,31.40
2022-08-17T14:20:10.386Z,31.47
2022-08-17T14:22:40.083Z,31.21
2022-08-17T14:25:10.714Z,31.76
2022-08-17T14:27:47.104Z,31.47
2022-08-17T14:30:24.366Z,32.08
2022-08-17T14:32:52.741Z,31.48
2022-08-17T14:35:23.070Z,30.86
2022-08-17T14:37:51.389Z,30.80
2022-08-17T14:40:22.630Z,31.05
2022-08-17T14:42:51.999Z,30.86
2022-08-17T14:45:31.640Z,30.59
2022-08-17T14:48:03.974Z,30.48
2022-08-17T14:50:32.082Z,30.33
2022-08-17T14:53:04.404Z,30.24
2022-08-17T14:55:32.418Z,30.07
2022-08-17T14:58:00.142Z,30.05
2022-08-17T15:00:28.592Z,29.90
2022-08-17T15:02:59.991Z,29.82
2022-08-17T15:05:34.707Z,29.99
2022-08-17T15:08:03.650Z,29.83
2022-08-17T15:10:32.402Z,29.51
2022-08-17T15:13:00.209Z,29.55
2022-08-17T15:15:28.571Z,29.61
2022-08-17T15:17:57.207Z,29.65
2022-08-17T15:20:28.995Z,29.48
2022-08-17T15:22:59.211Z,29.28
2022-08-17T15:25:28.845Z,29.31
2022-08-17T15:27:56.656Z,29.47
2022-08-17T15:30:25.704Z,29.32
2022-08-17T15:32:55.490Z,29.31
2022-08-17T15:35:27.558Z,29.13
2022-08-17T15:37:57.940Z,29.04
2022-08-17T15:40:26.068Z,29.14
2022-08-17T15:42:54.033Z,28.95
2022-08-17T15:45:26.351Z,29.05
2022-08-17T15:47:54.127Z,29.11
2022-08-17T15:50:21.915Z,29.09
2022-08-17T15:52:55.704Z,28.98
2022-08-17T15:55:25.813Z,29.08
2022-08-17T15:57:53.677Z,29.08
2022-08-17T16:00:24.038Z,28.94
2022-08-17T16:03:45.261Z,28.92
2022-08-17T16:05:40.880Z,29.00
2022-08-17T16:08:08.871Z,28.85
2022-08-17T16:10:38.503Z,28.81
2022-08-17T16:13:06.249Z,28.74
2022-08-17T16:15:51.060Z,28.63
2022-08-17T16:18:25.536Z,28.58
2022-08-17T16:20:53.301Z,28.72
2022-08-17T16:23:21.039Z,28.71
2022-08-17T16:25:53.641Z,28.67
2022-08-17T16:28:21.831Z,28.68
2022-08-17T16:30:49.674Z,28.68
2022-08-17T16:33:17.802Z,28.52
2022-08-17T16:35:45.526Z,28.46
2022-08-17T16:38:13.220Z,28.43
2022-08-17T16:40:42.315Z,28.71
2022-08-17T16:43:11.956Z,28.57
2022-08-17T16:45:40.659Z,28.64
2022-08-17T16:48:09.243Z,28.65
2022-08-17T16:50:37.943Z,28.53
2022-08-17T16:53:07.793Z,28.48
2022-08-17T16:55:36.498Z,28.47
2022-08-17T16:58:04.528Z,28.49
2022-08-17T17:00:34.391Z,28.40
2022-08-17T17:03:19.897Z,28.37
2022-08-17T17:05:59.776Z,28.24
2022-08-17T17:08:31.742Z,28.27
2022-08-17T17:11:04.012Z,28.29
2022-08-17T17:13:41.982Z,28.26
2022-08-17T17:16:32.254Z,27.97
2022-08-17T17:19:09.255Z,28.02
2022-08-17T17:21:45.119Z,27.93
2022-08-17T17:24:17.246Z,27.86
2022-08-17T17:27:08.587Z,27.66
2022-08-17T17:29:49.996Z,27.63
2022-08-17T17:32:26.667Z,27.32
2022-08-17T17:35:02.439Z,26.95
2022-08-17T17:37:34.987Z,26.51
2022-08-17T17:40:07.372Z,26.33
2022-08-17T17:42:35.764Z,26.02
2022-08-17T17:45:13.147Z,25.82
2022-08-17T17:47:42.346Z,25.65
2022-08-17T17:50:10.578Z,25.52
2022-08-17T17:52:47.568Z,25.46
2022-08-17T17:55:27.086Z,25.32
2022-08-17T17:58:04.572Z,25.39
2022-08-17T18:00:39.457Z,25.44
2022-08-17T18:03:50.573Z,25.47
2022-08-17T18:06:31.510Z,25.25
2022-08-17T18:09:18.030Z,25.14
2022-08-17T18:12:22.621Z,25.21
2022-08-17T18:15:11.280Z,25.05
2022-08-17T18:17:39.101Z,24.79
2022-08-17T18:20:08.661Z,24.74
2022-08-17T18:22:36.557Z,24.55
2022-08-17T18:25:40.067Z,24.58
2022-08-17T18:28:09.987Z,24.61
2022-08-17T18:30:37.701Z,24.42
2022-08-17T18:33:23.038Z,24.25
2022-08-17T18:35:58.556Z,24.38
2022-08-17T18:38:30.987Z,24.31
2022-08-17T18:41:05.627Z,24.28
2022-08-17T18:43:43.959Z,24.37
2022-08-17T18:46:28.837Z,24.20
2022-08-17T18:48:59.953Z,24.13
2022-08-17T18:51:41.016Z,24.19
2022-08-17T18:54:22.464Z,23.59
2022-08-17T18:56:53.275Z,23.85
2022-08-17T18:59:28.765Z,23.76
2022-08-17T19:02:24.250Z,23.86
2022-08-17T19:05:10.572Z,23.89
2022-08-17T19:07:42.699Z,23.78
2022-08-17T19:10:19.218Z,23.74
2022-08-17T19:12:50.131Z,23.88
2022-08-17T19:15:22.291Z,23.83
2022-08-17T19:17:56.611Z,23.69
2022-08-17T19:20:30.413Z,23.69
2022-08-17T19:23:16.777Z,23.69
2022-08-17T19:25:49.591Z,23.58
2022-08-17T19:28:24.010Z,23.74
2022-08-17T19:30:56.609Z,23.65
2022-08-17T19:33:24.546Z,23.73
2022-08-17T19:36:02.263Z,23.75
2022-08-17T19:38:41.371Z,23.60
2022-08-17T19:41:17.826Z,23.63
2022-08-17T19:44:15.245Z,23.54
2022-08-17T19:46:55.954Z,23.19
2022-08-17T19:49:40.968Z,22.98
2022-08-17T19:52:24.130Z,22.76
2022-08-17T19:55:01.977Z,22.40
2022-08-17T19:57:40.519Z,22.07
2022-08-17T20:00:12.050Z,21.66
2022-08-17T20:02:49.073Z,20.77
2022-08-17T20:05:24.754Z,19.73
2022-08-17T20:07:56.341Z,19.04
2022-08-17T20:10:35.298Z,18.57
2022-08-17T20:13:08.686Z,17.85
2022-08-17T20:15:40.180Z,17.62
2022-08-17T20:18:17.260Z,17.79
2022-08-17T20:20:54.858Z,17.77
2022-08-17T20:23:45.971Z,17.73
2022-08-17T20:26:21.542Z,17.63
2022-08-17T20:29:09.984Z,17.83
2022-08-17T20:31:47.267Z,17.84
2022-08-17T20:34:38.109Z,17.79
2022-08-17T20:37:09.361Z,17.72
2022-08-17T20:39:40.609Z,17.79
2022-08-17T20:42:31.503Z,17.40
2022-08-17T20:45:04.729Z,17.44
2022-08-17T20:47:35.383Z,17.50
2022-08-17T20:50:06.915Z,17.60
2022-08-17T20:52:52.866Z,17.65
2022-08-17T20:55:55.693Z,17.79
2022-08-17T20:58:48.272Z,17.63
2022-08-17T21:01:20.154Z,17.33
2022-08-17T21:03:52.154Z,17.16
2022-08-17T21:06:24.356Z,17.44
2022-08-17T21:08:57.899Z,17.50
2022-08-17T21:12:04.303Z,17.43
2022-08-17T21:14:52.106Z,17.32
2022-08-17T21:17:38.078Z,17.59
2022-08-17T21:20:15.559Z,17.44
2022-08-17T21:23:05.218Z,17.48
2022-08-17T21:25:51.209Z,17.51
2022-08-17T21:28:33.711Z,17.68
2022-08-17T21:31:08.966Z,17.57
2022-08-17T21:33:39.107Z,17.64
2022-08-17T21:36:25.043Z,17.57
2022-08-17T21:38:59.396Z,17.40
2022-08-17T21:41:31.938Z,17.09
2022-08-17T21:44:06.171Z,17.40
2022-08-17T21:46:42.821Z,17.44
2022-08-17T21:49:19.466Z,17.51
2022-08-17T21:51:50.299Z,17.55
2022-08-17T21:54:31.704Z,17.45
2022-08-17T21:57:02.193Z,17.69
2022-08-17T21:59:33.215Z,17.57
2022-08-17T22:02:04.039Z,17.57
2022-08-17T22:04:33.899Z,17.48
2022-08-17T22:07:03.262Z,17.30
2022-08-17T22:09:33.822Z,17.34
2022-08-17T22:12:07.391Z,17.53
2022-08-17T22:14:51.682Z,17.25
2022-08-17T22:17:25.350Z,17.49
2022-08-17T22:19:56.321Z,17.34
2022-08-17T22:22:32.542Z,17.41
2022-08-17T22:25:02.953Z,17.20
2022-08-17T22:27:54.319Z,17.12
2022-08-17T22:30:34.856Z,17.28
2022-08-17T22:33:32.303Z,17.14
2022-08-17T22:36:11.198Z,17.17
2022-08-17T22:38:39.207Z,17.04
2022-08-17T22:41:23.438Z,17.13
2022-08-17T22:43:52.159Z,17.08
2022-08-17T22:46:22.121Z,16.83
2022-08-17T22:48:54.839Z,16.97
2022-08-17T22:51:24.742Z,16.78
2022-08-17T22:54:13.018Z,16.89
2022-08-17T22:57:07.328Z,16.72
2022-08-17T22:59:44.683Z,16.89
2022-08-17T23:02:25.145Z,16.71
2022-08-17T23:04:59.240Z,16.78
2022-08-17T23:07:26.945Z,16.64
2022-08-17T23:09:55.347Z,17.02
2022-08-17T23:12:27.383Z,16.80
2022-08-17T23:15:01.566Z,16.67
2022-08-17T23:17:32.849Z,16.57
2022-08-17T23:20:08.327Z,16.64
2022-08-17T23:22:38.153Z,16.82
2022-08-17T23:25:29.252Z,16.87
2022-08-17T23:28:01.575Z,16.86
2022-08-17T23:30:31.148Z,16.92
2022-08-17T23:33:01.063Z,16.91
2022-08-17T23:35:39.651Z,16.98
2022-08-17T23:38:09.300Z,16.84
2022-08-17T23:40:37.734Z,16.82
2022-08-17T23:43:23.479Z,16.73
2022-08-17T23:45:54.463Z,16.80
2022-08-17T23:48:28.658Z,16.90
2022-08-17T23:51:09.775Z,17.03
2022-08-17T23:53:40.179Z,17.15
2022-08-17T23:56:11.187Z,17.04
2022-08-17T23:58:42.992Z,16.97
